createdAt,value
2018-09-06T00:01:17.375Z,69.80
2018-09-06T00:03:46.226Z,69.90
2018-09-06T00:06:15.614Z,70.10
2018-09-06T00:08:44.558Z,69.90
2018-09-06T00:11:13.482Z,70.00
2018-09-06T00:13:42.612Z,70.10
2018-09-06T00:16:11.643Z,70.30
2018-09-06T00:18:40.593Z,70.50
2018-09-06T00:21:09.632Z,70.20
2018-09-06T00:23:38.544Z,70.30
2018-09-06T00:26:07.423Z,70.50
2018-09-06T00:28:36.328Z,70.60
2018-09-06T00:31:08.839Z,70.60
2018-09-06T00:33:37.524Z,70.60
2018-09-06T00:36:06.432Z,70.60
2018-09-06T00:38:35.195Z,70.90
2018-09-06T00:41:03.850Z,71.10
2018-09-06T00:43:32.536Z,71.20
2018-09-06T00:46:01.260Z,71.10
2018-09-06T00:48:30.136Z,71.40
2018-09-06T00:50:58.907Z,71.50
2018-09-06T00:53:27.877Z,71.30
2018-09-06T00:55:56.572Z,71.60
2018-09-06T00:58:25.211Z,72.00
2018-09-06T01:00:53.939Z,71.70
2018-09-06T01:03:22.616Z,71.70
2018-09-06T01:05:51.322Z,71.60
2018-09-06T01:08:20.186Z,71.70
2018-09-06T01:10:48.819Z,71.70
2018-09-06T01:13:18.627Z,71.60
2018-09-06T01:15:47.253Z,71.70
2018-09-06T01:18:16.126Z,71.70
2018-09-06T01:20:45.014Z,71.90
2018-09-06T01:23:13.934Z,71.90
2018-09-06T01:25:49.586Z,72.00
2018-09-06T01:28:20.468Z,72.00
2018-09-06T01:30:49.726Z,72.10
2018-09-06T01:33:18.666Z,72.00
2018-09-06T01:35:52.582Z,72.10
2018-09-06T01:38:30.533Z,72.30
2018-09-06T01:41:03.174Z,72.30
2018-09-06T01:43:32.011Z,72.40
2018-09-06T01:46:00.908Z,72.40
2018-09-06T01:48:29.798Z,72.60
2018-09-06T01:50:58.646Z,72.40
2018-09-06T01:53:27.616Z,72.40
2018-09-06T01:55:56.601Z,72.80
2018-09-06T01:58:25.434Z,72.80
2018-09-06T02:00:54.410Z,72.70
2018-09-06T02:03:23.327Z,72.80
2018-09-06T02:05:52.237Z,72.90
2018-09-06T02:08:21.189Z,72.90
2018-09-06T02:10:50.048Z,72.80
2018-09-06T02:13:18.947Z,72.80
2018-09-06T02:15:47.875Z,72.80
2018-09-06T02:18:16.728Z,72.80
2018-09-06T02:20:45.660Z,73.30
2018-09-06T02:23:14.617Z,73.10
2018-09-06T02:25:43.636Z,73.10
2018-09-06T02:28:12.320Z,73.10
2018-09-06T02:30:41.157Z,73.00
2018-09-06T02:33:09.913Z,73.10
2018-09-06T02:35:38.541Z,73.10
2018-09-06T02:38:07.228Z,73.30
2018-09-06T02:40:40.076Z,73.20
2018-09-06T02:43:10.940Z,73.40
2018-09-06T02:45:40.149Z,73.50
2018-09-06T02:48:08.857Z,73.50
2018-09-06T02:50:42.717Z,73.50
2018-09-06T02:53:11.428Z,73.30
2018-09-06T02:55:40.280Z,74.10
2018-09-06T02:58:09.046Z,73.50
2018-09-06T03:00:38.623Z,73.70
2018-09-06T03:03:07.515Z,73.80
2018-09-06T03:05:36.395Z,73.80
2018-09-06T03:08:05.239Z,73.80
2018-09-06T03:10:42.547Z,73.90
2018-09-06T03:13:11.546Z,74.10
2018-09-06T03:15:40.465Z,74.20
2018-09-06T03:18:09.517Z,74.10
2018-09-06T03:20:39.469Z,74.20
2018-09-06T03:23:08.361Z,74.40
2018-09-06T03:25:37.426Z,74.10
2018-09-06T03:28:06.434Z,74.30
2018-09-06T03:30:35.489Z,74.20
2018-09-06T03:33:04.476Z,74.20
2018-09-06T03:35:33.374Z,74.30
2018-09-06T03:38:02.273Z,74.50
2018-09-06T03:40:31.283Z,74.70
2018-09-06T03:43:00.152Z,74.60
2018-09-06T03:45:29.197Z,74.50
2018-09-06T03:47:58.069Z,74.80
2018-09-06T03:50:26.993Z,75.20
2018-09-06T03:52:57.092Z,75.00
2018-09-06T03:55:26.052Z,75.00
2018-09-06T03:57:55.109Z,75.20
2018-09-06T04:00:24.037Z,75.00
2018-09-06T04:02:52.941Z,75.10
2018-09-06T04:05:22.397Z,75.50
2018-09-06T04:07:51.283Z,75.70
2018-09-06T04:10:20.189Z,75.70
2018-09-06T04:12:49.007Z,75.50
2018-09-06T04:15:17.836Z,76.30
2018-09-06T04:17:46.823Z,76.20
2018-09-06T04:20:15.931Z,76.40
2018-09-06T04:22:48.062Z,76.30
2018-09-06T04:25:17.072Z,76.10
2018-09-06T04:27:46.095Z,76.40
2018-09-06T04:30:15.089Z,75.70
2018-09-06T04:32:43.991Z,76.50
2018-09-06T04:35:12.865Z,75.60
2018-09-06T04:37:41.784Z,75.70
2018-09-06T04:40:10.646Z,75.90
2018-09-06T04:42:39.594Z,76.20
2018-09-06T04:45:08.584Z,76.40
2018-09-06T04:47:37.658Z,76.00
2018-09-06T04:50:06.732Z,76.10
2018-09-06T04:52:35.694Z,77.10
2018-09-06T04:55:04.540Z,76.70
2018-09-06T04:57:33.404Z,76.80
2018-09-06T05:00:02.339Z,77.00
2018-09-06T05:02:38.399Z,76.80
2018-09-06T05:05:07.341Z,76.80
2018-09-06T05:07:36.130Z,77.30
2018-09-06T05:10:05.323Z,76.80
2018-09-06T05:12:34.171Z,77.50
2018-09-06T05:15:03.438Z,77.50
2018-09-06T05:17:32.337Z,77.50
2018-09-06T05:20:01.284Z,76.90
2018-09-06T05:22:30.186Z,76.70
2018-09-06T05:24:59.394Z,77.80
2018-09-06T05:27:28.410Z,78.00
2018-09-06T05:29:57.378Z,78.20
2018-09-06T05:32:26.282Z,78.90
2018-09-06T05:35:23.794Z,78.90
2018-09-06T05:37:56.156Z,79.00
2018-09-06T05:40:25.036Z,79.00
2018-09-06T05:42:53.902Z,79.30
2018-09-06T05:45:22.816Z,79.00
2018-09-06T05:47:57.702Z,78.90
2018-09-06T05:50:27.639Z,80.60
2018-09-06T05:52:56.655Z,78.70
2018-09-06T05:55:25.564Z,78.00
2018-09-06T05:57:54.540Z,79.60
2018-09-06T06:00:28.444Z,78.30
2018-09-06T06:02:59.283Z,80.20
2018-09-06T06:05:28.323Z,79.20
2018-09-06T06:08:08.209Z,80.60
2018-09-06T06:10:37.183Z,82.20
2018-09-06T06:13:06.142Z,81.70
2018-09-06T06:15:35.158Z,80.80
2018-09-06T06:18:04.169Z,81.60
2018-09-06T06:20:33.270Z,81.90
2018-09-06T06:23:02.233Z,82.50
2018-09-06T06:25:31.179Z,83.30
2018-09-06T06:28:00.118Z,85.00
2018-09-06T06:30:29.285Z,83.60
2018-09-06T06:32:58.236Z,83.60
2018-09-06T06:35:27.635Z,82.90
2018-09-06T06:37:56.424Z,82.10
2018-09-06T06:40:25.683Z,81.00
2018-09-06T06:42:54.561Z,82.40
2018-09-06T06:45:23.358Z,82.40
2018-09-06T06:47:52.277Z,79.90
2018-09-06T06:50:21.355Z,78.30
2018-09-06T06:52:50.237Z,80.20
2018-09-06T06:55:19.106Z,78.60
2018-09-06T06:57:48.042Z,77.70
2018-09-06T07:00:18.101Z,75.10
2018-09-06T07:02:49.271Z,76.20
2018-09-06T07:05:18.203Z,74.20
2018-09-06T07:07:47.067Z,74.30
2018-09-06T07:10:15.934Z,72.90
2018-09-06T07:12:44.724Z,72.00
2018-09-06T07:15:13.749Z,72.20
2018-09-06T07:17:42.585Z,68.80
2018-09-06T07:20:11.472Z,71.90
2018-09-06T07:22:40.356Z,71.70
2018-09-06T07:25:09.253Z,71.50
2018-09-06T07:27:38.159Z,70.40
2018-09-06T07:30:07.095Z,69.10
2018-09-06T07:32:35.897Z,69.30
2018-09-06T07:35:04.873Z,66.70
2018-09-06T07:37:33.883Z,65.20
2018-09-06T07:40:02.801Z,66.80
2018-09-06T07:42:31.863Z,66.60
2018-09-06T07:45:00.678Z,64.70
2018-09-06T07:47:29.404Z,65.80
2018-09-06T07:49:58.387Z,63.60
2018-09-06T07:52:27.291Z,64.30
2018-09-06T07:54:56.185Z,63.40
2018-09-06T07:57:25.014Z,62.70
2018-09-06T07:59:53.982Z,63.70
2018-09-06T08:02:22.836Z,62.70
2018-09-06T08:04:51.780Z,62.90
2018-09-06T08:07:20.758Z,61.30
2018-09-06T08:09:49.625Z,60.80
2018-09-06T08:12:18.493Z,60.50
2018-09-06T08:14:47.369Z,60.30
2018-09-06T08:17:16.498Z,60.10
2018-09-06T08:19:45.383Z,59.50
2018-09-06T08:22:14.232Z,59.70
2018-09-06T08:24:43.072Z,60.10
2018-09-06T08:27:11.758Z,58.30
2018-09-06T08:29:40.405Z,58.20
2018-09-06T08:32:09.179Z,58.50
2018-09-06T08:34:37.947Z,58.20
2018-09-06T08:37:06.739Z,57.00
2018-09-06T08:39:35.364Z,58.20
2018-09-06T08:42:04.028Z,57.50
2018-09-06T08:44:32.689Z,56.60
2018-09-06T08:47:01.473Z,56.70
2018-09-06T08:49:30.199Z,57.30
2018-09-06T08:51:58.877Z,56.80
2018-09-06T08:54:27.887Z,56.30
2018-09-06T08:56:56.540Z,56.00
2018-09-06T08:59:25.310Z,55.30
2018-09-06T09:01:53.968Z,56.80
2018-09-06T09:04:22.646Z,56.00
2018-09-06T09:06:51.286Z,54.40
2018-09-06T09:09:19.905Z,53.50
2018-09-06T09:11:48.639Z,52.50
2018-09-06T09:14:17.268Z,52.20
2018-09-06T09:16:45.993Z,52.50
2018-09-06T09:19:14.634Z,52.10
2018-09-06T09:21:43.532Z,53.10
2018-09-06T09:24:12.133Z,53.90
2018-09-06T09:26:40.798Z,53.70
2018-09-06T09:29:09.442Z,53.50
2018-09-06T09:31:38.077Z,53.40
2018-09-06T09:34:07.119Z,53.40
2018-09-06T09:36:35.821Z,53.50
2018-09-06T09:39:05.758Z,54.10
2018-09-06T09:41:34.446Z,53.90
2018-09-06T09:44:03.145Z,53.10
2018-09-06T09:48:59.762Z,52.70
2018-09-06T09:51:28.519Z,53.50
2018-09-06T09:53:57.290Z,52.60
2018-09-06T09:56:30.448Z,51.40
2018-09-06T09:58:59.105Z,51.70
2018-09-06T10:01:32.930Z,51.60
2018-09-06T10:04:06.872Z,52.10
2018-09-06T10:06:40.663Z,52.30
2018-09-06T10:09:27.462Z,52.10
2018-09-06T10:11:57.158Z,51.00
2018-09-06T10:14:25.921Z,50.90
2018-09-06T10:16:54.605Z,51.70
2018-09-06T10:19:23.363Z,51.60
2018-09-06T10:21:52.146Z,51.10
2018-09-06T10:24:20.795Z,49.30
2018-09-06T10:26:49.633Z,49.40
2018-09-06T10:29:18.274Z,49.10
2018-09-06T10:31:47.133Z,48.80
2018-09-06T10:34:15.847Z,48.40
2018-09-06T10:36:44.495Z,49.10
2018-09-06T10:39:13.368Z,49.80
2018-09-06T10:41:42.097Z,50.30
2018-09-06T10:44:10.838Z,50.60
2018-09-06T10:46:39.507Z,50.40
2018-09-06T10:49:08.241Z,50.40
2018-09-06T10:51:36.899Z,50.70
2018-09-06T10:54:05.609Z,50.60
2018-09-06T10:56:34.529Z,50.30
2018-09-06T10:59:03.277Z,50.60
2018-09-06T11:01:31.985Z,50.90
2018-09-06T11:04:00.753Z,50.20
2018-09-06T11:06:29.483Z,49.00
2018-09-06T11:08:58.334Z,49.90
2018-09-06T11:11:27.008Z,49.80
2018-09-06T11:13:55.740Z,49.90
2018-09-06T11:16:24.511Z,50.40
2018-09-06T11:18:53.156Z,49.70
2018-09-06T11:21:21.950Z,50.50
2018-09-06T11:23:50.569Z,50.20
2018-09-06T11:26:19.187Z,50.10
2018-09-06T11:28:47.864Z,49.60
2018-09-06T11:31:16.560Z,47.90
2018-09-06T11:33:45.305Z,48.20
2018-09-06T11:36:14.194Z,47.80
2018-09-06T11:38:42.918Z,47.60
2018-09-06T11:41:11.526Z,47.50
2018-09-06T11:43:40.183Z,47.70
2018-09-06T11:46:09.343Z,46.20
2018-09-06T11:48:38.041Z,46.10
2018-09-06T11:51:07.362Z,46.80
2018-09-06T11:53:36.063Z,47.20
2018-09-06T11:56:04.936Z,46.50
2018-09-06T11:58:33.645Z,46.50
2018-09-06T12:01:02.425Z,46.70
2018-09-06T12:03:31.213Z,45.40
2018-09-06T12:05:59.937Z,46.60
2018-09-06T12:08:28.709Z,45.90
2018-09-06T12:10:57.478Z,46.30
2018-09-06T12:13:26.233Z,47.10
2018-09-06T12:15:54.883Z,48.50
2018-09-06T12:18:23.628Z,47.20
2018-09-06T12:20:52.485Z,48.60
2018-09-06T12:23:21.146Z,48.40
2018-09-06T12:25:50.045Z,48.40
2018-09-06T12:28:18.950Z,48.30
2018-09-06T12:30:48.028Z,48.40
2018-09-06T12:35:37.412Z,48.10
2018-09-06T12:38:06.449Z,48.90
2018-09-06T12:40:35.742Z,49.40
2018-09-06T12:43:04.774Z,50.40
2018-09-06T12:45:34.011Z,51.00
2018-09-06T12:48:02.988Z,51.20
2018-09-06T12:50:31.990Z,51.10
2018-09-06T12:53:00.984Z,51.80
2018-09-06T12:55:30.085Z,51.60
2018-09-06T12:57:59.084Z,52.20
2018-09-06T13:00:28.060Z,52.70
2018-09-06T13:02:56.951Z,53.20
2018-09-06T13:05:26.077Z,53.70
2018-09-06T13:07:55.047Z,54.40
2018-09-06T13:10:24.012Z,54.50
2018-09-06T13:12:53.015Z,55.00
2018-09-06T13:15:22.149Z,55.70
2018-09-06T13:17:51.118Z,57.10
2018-09-06T13:20:19.932Z,58.40
2018-09-06T13:22:48.928Z,59.10
2018-09-06T13:25:17.992Z,59.80
2018-09-06T13:27:46.641Z,60.20
2018-09-06T13:30:15.342Z,60.70
2018-09-06T13:32:44.038Z,61.10
2018-09-06T13:35:12.871Z,61.40
2018-09-06T13:37:41.561Z,61.60
2018-09-06T13:40:10.312Z,62.00
2018-09-06T13:42:39.107Z,62.40
2018-09-06T13:45:07.959Z,63.10
2018-09-06T13:47:36.816Z,63.40
2018-09-06T13:50:06.014Z,63.80
2018-09-06T13:52:34.787Z,63.90
2018-09-06T13:55:03.856Z,64.70
2018-09-06T13:57:33.267Z,65.10
2018-09-06T14:00:02.573Z,66.20
2018-09-06T14:02:31.442Z,67.20
2018-09-06T14:05:00.368Z,66.70
2018-09-06T14:07:29.496Z,66.20
2018-09-06T14:09:58.549Z,66.70
2018-09-06T14:12:34.233Z,67.50
2018-09-06T14:15:03.406Z,67.80
2018-09-06T14:17:32.364Z,68.10
2018-09-06T14:20:03.668Z,68.60
2018-09-06T14:22:33.286Z,68.50
2018-09-06T14:25:02.448Z,68.10
2018-09-06T14:27:31.815Z,68.60
2018-09-06T14:30:00.902Z,68.70
2018-09-06T14:32:29.885Z,68.80
2018-09-06T14:34:58.933Z,69.00
2018-09-06T14:37:27.844Z,69.40
2018-09-06T14:39:56.844Z,68.90
2018-09-06T14:42:25.702Z,68.70
2018-09-06T14:44:55.024Z,68.20
2018-09-06T14:47:23.848Z,68.50
2018-09-06T14:49:52.902Z,68.50
2018-09-06T14:52:22.336Z,68.10
2018-09-06T14:55:03.835Z,67.90
2018-09-06T14:57:33.251Z,67.70
2018-09-06T15:00:02.519Z,67.80
2018-09-06T15:02:31.733Z,67.80
2018-09-06T15:05:10.272Z,67.70
2018-09-06T15:07:39.552Z,67.60
2018-09-06T15:10:08.952Z,68.00
2018-09-06T15:12:38.046Z,67.70
2018-09-06T15:15:07.397Z,67.90
2018-09-06T15:17:36.598Z,68.20
2018-09-06T15:20:09.775Z,68.30
2018-09-06T15:22:39.258Z,68.80
2018-09-06T15:25:09.169Z,69.10
2018-09-06T15:27:38.599Z,69.10
2018-09-06T15:30:22.141Z,69.10
2018-09-06T15:32:51.071Z,68.90
2018-09-06T15:35:20.335Z,68.90
2018-09-06T15:37:49.476Z,68.90
2018-09-06T15:40:18.215Z,68.90
2018-09-06T15:42:49.364Z,69.00
2018-09-06T15:45:18.186Z,69.00
2018-09-06T15:47:47.262Z,69.00
2018-09-06T15:50:16.134Z,69.10
2018-09-06T15:52:45.087Z,68.90
2018-09-06T15:55:25.800Z,69.00
2018-09-06T15:58:07.865Z,69.10
2018-09-06T16:00:43.068Z,69.50
2018-09-06T16:03:17.596Z,69.50
2018-09-06T16:05:49.189Z,69.60
2018-09-06T16:08:23.348Z,69.30
2018-09-06T16:10:52.570Z,69.30
2018-09-06T16:13:35.520Z,69.80
2018-09-06T16:16:04.827Z,70.20
2018-09-06T16:18:34.081Z,69.80
2018-09-06T16:21:08.315Z,70.30
2018-09-06T16:23:48.662Z,70.20
2018-09-06T16:26:27.573Z,70.20
2018-09-06T16:28:57.197Z,70.50
2018-09-06T16:31:40.305Z,71.10
2018-09-06T16:34:15.820Z,70.90
2018-09-06T16:36:56.086Z,70.90
2018-09-06T16:39:29.496Z,71.20
2018-09-06T16:41:58.428Z,71.10
2018-09-06T16:44:27.321Z,71.00
2018-09-06T16:46:56.637Z,71.00
2018-09-06T16:49:25.925Z,71.40
2018-09-06T16:51:55.020Z,71.20
2018-09-06T16:54:24.973Z,71.30
2018-09-06T16:56:53.931Z,71.20
2018-09-06T16:59:32.666Z,71.20
2018-09-06T17:02:13.216Z,71.20
2018-09-06T17:04:42.472Z,71.30
2018-09-06T17:07:11.490Z,71.40
2018-09-06T17:09:40.184Z,71.80
2018-09-06T17:12:09.244Z,72.10
2018-09-06T17:14:38.505Z,72.00
2018-09-06T17:17:07.481Z,72.30
2018-09-06T17:19:37.394Z,72.60
2018-09-06T17:22:06.696Z,72.70
2018-09-06T17:24:43.884Z,73.00
2018-09-06T17:27:18.908Z,72.80
2018-09-06T17:29:48.227Z,72.90
2018-09-06T17:32:17.212Z,73.20
2018-09-06T17:34:46.069Z,73.20
2018-09-06T17:37:15.093Z,73.10
2018-09-06T17:39:44.383Z,73.10
2018-09-06T17:42:13.374Z,73.10
2018-09-06T17:44:47.174Z,73.10
2018-09-06T17:47:28.373Z,72.80
2018-09-06T17:49:57.989Z,72.90
2018-09-06T17:52:27.018Z,72.80
2018-09-06T17:54:55.958Z,72.70
2018-09-06T17:57:31.360Z,72.60
2018-09-06T18:00:00.038Z,72.70
2018-09-06T18:02:29.014Z,72.80
2018-09-06T18:04:58.144Z,72.70
2018-09-06T18:07:32.495Z,72.80
2018-09-06T18:10:02.325Z,72.90
2018-09-06T18:12:31.436Z,72.90
2018-09-06T18:15:00.132Z,72.90
2018-09-06T18:17:29.196Z,72.90
2018-09-06T18:19:57.906Z,72.90
2018-09-06T18:22:36.360Z,72.90
2018-09-06T18:25:05.475Z,72.80
2018-09-06T18:27:34.279Z,72.90
2018-09-06T18:30:03.100Z,72.90
2018-09-06T18:32:32.163Z,72.90
2018-09-06T18:35:01.283Z,73.00
2018-09-06T18:37:30.296Z,73.10
2018-09-06T18:39:59.362Z,73.00
2018-09-06T18:42:28.435Z,73.10
2018-09-06T18:44:57.451Z,73.00
2018-09-06T18:47:26.939Z,73.20
2018-09-06T18:49:55.953Z,73.20
2018-09-06T18:52:37.551Z,73.20
2018-09-06T18:55:06.395Z,73.30
2018-09-06T18:57:35.238Z,73.30
2018-09-06T19:00:04.041Z,73.30
2018-09-06T19:02:32.715Z,73.40
2018-09-06T19:05:01.622Z,73.60
2018-09-06T19:07:30.307Z,73.60
2018-09-06T19:09:59.359Z,73.90
2018-09-06T19:12:28.345Z,73.70
2018-09-06T19:14:57.120Z,73.70
2018-09-06T19:17:25.759Z,73.80
2018-09-06T19:19:54.408Z,73.90
2018-09-06T19:22:23.294Z,73.90
2018-09-06T19:24:51.969Z,74.00
2018-09-06T19:27:21.170Z,74.10
2018-09-06T19:29:49.975Z,74.10
2018-09-06T19:32:18.657Z,74.10
2018-09-06T19:34:47.410Z,74.20
2018-09-06T19:37:16.309Z,74.20
2018-09-06T19:39:45.431Z,74.20
2018-09-06T19:42:14.300Z,74.10
2018-09-06T19:44:43.338Z,74.20
2018-09-06T19:47:12.425Z,74.80
2018-09-06T19:49:41.641Z,74.60
2018-09-06T19:52:10.675Z,74.50
2018-09-06T19:54:40.186Z,74.50
2018-09-06T19:57:09.791Z,74.50
2018-09-06T19:59:38.887Z,74.50
2018-09-06T20:02:08.053Z,74.50
2018-09-06T20:04:37.225Z,74.70
2018-09-06T20:07:06.337Z,74.70
2018-09-06T20:09:35.529Z,74.80
2018-09-06T20:12:05.763Z,74.90
2018-09-06T20:14:35.211Z,74.80
2018-09-06T20:17:05.195Z,74.70
2018-09-06T20:19:34.267Z,74.90
2018-09-06T20:22:03.119Z,74.90
2018-09-06T20:24:32.587Z,74.90
2018-09-06T20:27:03.449Z,75.00
2018-09-06T20:29:32.946Z,75.00
2018-09-06T20:32:02.275Z,75.00
2018-09-06T20:34:31.396Z,75.10
2018-09-06T20:37:03.967Z,75.20
2018-09-06T20:39:32.992Z,75.20
2018-09-06T20:42:01.920Z,75.40
2018-09-06T20:44:30.862Z,75.40
2018-09-06T20:47:00.485Z,75.80
2018-09-06T20:49:35.949Z,75.70
2018-09-06T20:52:04.993Z,75.70
2018-09-06T20:54:34.554Z,75.90
2018-09-06T20:57:05.052Z,75.80
2018-09-06T20:59:34.181Z,76.80
2018-09-06T21:02:12.836Z,76.50
2018-09-06T21:04:42.070Z,77.20
2018-09-06T21:07:11.770Z,76.70
2018-09-06T21:09:58.452Z,76.80
2018-09-06T21:12:27.599Z,76.60
2018-09-06T21:14:57.053Z,76.80
2018-09-06T21:17:26.467Z,76.80
2018-09-06T21:19:55.619Z,77.30
2018-09-06T21:22:24.855Z,77.20
2018-09-06T21:24:53.971Z,77.30
2018-09-06T21:27:27.428Z,77.40
2018-09-06T21:29:56.570Z,77.10
2018-09-06T21:32:25.772Z,77.00
2018-09-06T21:34:55.041Z,77.30
2018-09-06T21:37:24.141Z,77.50
2018-09-06T21:39:53.545Z,77.60
2018-09-06T21:42:22.669Z,78.30
2018-09-06T21:44:51.733Z,78.00
2018-09-06T21:47:20.750Z,77.80
2018-09-06T21:49:50.135Z,77.60
2018-09-06T21:52:19.104Z,77.60
2018-09-06T21:54:48.013Z,77.60
2018-09-06T21:57:16.978Z,77.40
2018-09-06T21:59:45.920Z,77.50
2018-09-06T22:02:20.134Z,77.40
2018-09-06T22:04:49.361Z,77.60
2018-09-06T22:07:19.097Z,77.40
2018-09-06T22:09:47.903Z,77.30
2018-09-06T22:12:18.074Z,77.50
2018-09-06T22:14:48.704Z,77.50
2018-09-06T22:17:22.990Z,77.40
2018-09-06T22:19:51.687Z,77.30
2018-09-06T22:22:20.390Z,77.30
2018-09-06T22:24:49.198Z,77.30
2018-09-06T22:27:18.513Z,77.20
2018-09-06T22:29:47.301Z,77.10
2018-09-06T22:32:15.983Z,77.40
2018-09-06T22:34:44.653Z,77.30
2018-09-06T22:37:13.297Z,77.50
2018-09-06T22:39:42.121Z,77.50
2018-09-06T22:42:10.861Z,77.60
2018-09-06T22:44:39.751Z,77.60
2018-09-06T22:47:08.422Z,77.70
2018-09-06T22:49:37.849Z,77.80
2018-09-06T22:52:06.816Z,77.70
2018-09-06T22:54:35.492Z,77.90
2018-09-06T22:57:04.607Z,77.90
2018-09-06T22:59:33.647Z,78.10
2018-09-06T23:02:02.857Z,78.10
2018-09-06T23:04:31.765Z,78.00
2018-09-06T23:07:00.756Z,77.90
2018-09-06T23:09:32.253Z,77.80
2018-09-06T23:12:01.163Z,77.90
2018-09-06T23:14:30.018Z,77.90
2018-09-06T23:16:59.029Z,78.00
2018-09-06T23:19:28.063Z,77.90
2018-09-06T23:21:57.130Z,77.80
2018-09-06T23:24:26.110Z,78.00
2018-09-06T23:26:55.033Z,78.20
2018-09-06T23:29:24.574Z,78.80
2018-09-06T23:31:53.872Z,78.10
2018-09-06T23:34:22.793Z,78.20
2018-09-06T23:36:51.651Z,78.60
2018-09-06T23:39:20.781Z,78.40
2018-09-06T23:41:49.646Z,79.50
2018-09-06T23:44:18.691Z,79.40
2018-09-06T23:46:47.592Z,79.90
2018-09-06T23:49:16.455Z,79.90
2018-09-06T23:51:45.436Z,79.40
2018-09-06T23:54:14.422Z,79.50
2018-09-06T23:56:43.319Z,79.60
2018-09-06T23:59:12.141Z,80.00
